createdAt,value
2022-08-17T00:02:26.590Z,99.64
2022-08-17T00:04:54.167Z,99.86
2022-08-17T00:07:20.745Z,99.86
2022-08-17T00:09:47.204Z,99.67
2022-08-17T00:12:40.696Z,99.63
2022-08-17T00:15:00.701Z,99.93
2022-08-17T00:17:27.476Z,100.00
2022-08-17T00:19:53.906Z,100.00
2022-08-17T00:22:32.278Z,100.00
2022-08-17T00:25:02.455Z,100.00
2022-08-17T00:27:28.941Z,100.00
2022-08-17T00:29:55.342Z,100.00
2022-08-17T00:33:11.902Z,100.00
2022-08-17T00:35:10.675Z,100.00
2022-08-17T00:37:37.078Z,100.00
2022-08-17T00:40:04.383Z,100.00
2022-08-17T00:42:31.384Z,100.00
2022-08-17T00:44:58.526Z,100.00
2022-08-17T00:47:25.028Z,100.00
2022-08-17T00:49:51.774Z,100.00
2022-08-17T00:52:23.047Z,100.00
2022-08-17T00:54:53.962Z,100.00
2022-08-17T00:57:26.027Z,100.00
2022-08-17T01:00:06.195Z,100.00
2022-08-17T01:02:41.676Z,100.00
2022-08-17T01:05:21.230Z,100.00
2022-08-17T01:07:50.609Z,100.00
2022-08-17T01:11:00.423Z,100.00
2022-08-17T01:13:07.461Z,100.00
2022-08-17T01:15:37.515Z,100.00
2022-08-17T01:18:09.845Z,100.00
2022-08-17T01:20:47.883Z,100.00
2022-08-17T01:23:20.560Z,100.00
2022-08-17T01:25:54.871Z,100.00
2022-08-17T01:28:52.389Z,100.00
2022-08-17T01:31:09.866Z,100.00
2022-08-17T01:33:36.719Z,100.00
2022-08-17T01:36:07.023Z,100.00
2022-08-17T01:38:37.951Z,100.00
2022-08-17T01:41:12.212Z,100.00
2022-08-17T01:43:51.239Z,100.00
2022-08-17T01:46:27.119Z,100.00
2022-08-17T01:48:55.276Z,100.00
2022-08-17T01:51:22.395Z,100.00
2022-08-17T01:53:54.060Z,100.00
2022-08-17T01:56:24.327Z,100.00
2022-08-17T01:58:51.348Z,100.00
2022-08-17T02:01:24.196Z,100.00
2022-08-17T02:03:59.295Z,100.00
2022-08-17T02:06:53.715Z,100.00
2022-08-17T02:09:18.819Z,100.00
2022-08-17T02:11:49.927Z,100.00
2022-08-17T02:14:16.663Z,100.00
2022-08-17T02:16:43.290Z,100.00
2022-08-17T02:19:14.138Z,100.00
2022-08-17T02:21:43.035Z,100.00
2022-08-17T02:24:12.943Z,100.00
2022-08-17T02:26:39.495Z,100.00
2022-08-17T02:29:06.017Z,100.00
2022-08-17T02:31:32.960Z,100.00
2022-08-17T02:34:04.185Z,100.00
2022-08-17T02:36:33.954Z,100.00
2022-08-17T02:39:03.436Z,100.00
2022-08-17T02:41:30.476Z,100.00
2022-08-17T02:43:57.124Z,100.00
2022-08-17T02:46:23.588Z,100.00
2022-08-17T02:48:50.076Z,100.00
2022-08-17T02:51:16.869Z,100.00
2022-08-17T02:53:43.475Z,100.00
2022-08-17T02:56:09.933Z,100.00
2022-08-17T02:58:36.436Z,100.00
2022-08-17T03:01:07.345Z,100.00
2022-08-17T03:03:34.234Z,100.00
2022-08-17T03:06:01.406Z,100.00
2022-08-17T03:08:28.209Z,100.00
2022-08-17T03:10:54.663Z,100.00
2022-08-17T03:13:21.126Z,100.00
2022-08-17T03:15:48.390Z,100.00
2022-08-17T03:18:24.736Z,100.00
2022-08-17T03:20:58.292Z,100.00
2022-08-17T03:23:26.413Z,100.00
2022-08-17T03:25:55.215Z,100.00
2022-08-17T03:28:23.181Z,100.00
2022-08-17T03:30:51.094Z,100.00
2022-08-17T03:33:18.558Z,100.00
2022-08-17T03:35:45.259Z,100.00
2022-08-17T03:38:15.000Z,100.00
2022-08-17T03:40:56.971Z,100.00
2022-08-17T03:43:29.629Z,100.00
2022-08-17T03:46:28.310Z,100.00
2022-08-17T03:49:20.498Z,100.00
2022-08-17T03:52:05.337Z,100.00
2022-08-17T03:54:50.170Z,100.00
2022-08-17T03:57:17.143Z,100.00
2022-08-17T03:59:43.623Z,100.00
2022-08-17T04:02:16.732Z,100.00
2022-08-17T04:04:43.174Z,100.00
2022-08-17T04:07:09.612Z,100.00
2022-08-17T04:09:36.586Z,100.00
2022-08-17T04:12:04.959Z,100.00
2022-08-17T04:14:36.676Z,100.00
2022-08-17T04:17:19.969Z,100.00
2022-08-17T04:19:46.658Z,100.00
2022-08-17T04:22:30.803Z,100.00
2022-08-17T04:25:00.661Z,100.00
2022-08-17T04:27:27.159Z,100.00
2022-08-17T04:29:55.284Z,100.00
2022-08-17T04:33:05.191Z,100.00
2022-08-17T04:35:09.872Z,100.00
2022-08-17T04:37:36.309Z,100.00
2022-08-17T04:40:22.229Z,100.00
2022-08-17T04:43:04.858Z,100.00
2022-08-17T04:45:32.305Z,100.00
2022-08-17T04:47:59.782Z,100.00
2022-08-17T04:50:26.317Z,100.00
2022-08-17T04:52:52.779Z,100.00
2022-08-17T04:55:19.269Z,100.00
2022-08-17T04:57:45.660Z,100.00
2022-08-17T05:00:12.538Z,100.00
2022-08-17T05:02:50.975Z,100.00
2022-08-17T05:05:25.641Z,100.00
2022-08-17T05:07:57.491Z,100.00
2022-08-17T05:10:26.138Z,100.00
2022-08-17T05:13:03.897Z,100.00
2022-08-17T05:15:33.094Z,100.00
2022-08-17T05:18:02.527Z,100.00
2022-08-17T05:20:30.295Z,100.00
2022-08-17T05:23:00.112Z,100.00
2022-08-17T05:25:29.843Z,100.00
2022-08-17T05:27:59.245Z,100.00
2022-08-17T05:30:28.734Z,100.00
2022-08-17T05:33:08.802Z,100.00
2022-08-17T05:35:37.479Z,100.00
2022-08-17T05:38:04.707Z,100.00
2022-08-17T05:40:32.811Z,100.00
2022-08-17T05:43:12.024Z,100.00
2022-08-17T05:46:13.274Z,100.00
2022-08-17T05:48:49.454Z,100.00
2022-08-17T05:51:46.858Z,100.00
2022-08-17T05:54:50.550Z,100.00
2022-08-17T05:57:39.490Z,100.00
2022-08-17T06:00:22.336Z,100.00
2022-08-17T06:03:17.233Z,100.00
2022-08-17T06:05:51.479Z,100.00
2022-08-17T06:08:32.281Z,100.00
2022-08-17T06:11:07.154Z,100.00
2022-08-17T06:14:09.703Z,100.00
2022-08-17T06:16:41.114Z,100.00
2022-08-17T06:19:10.499Z,100.00
2022-08-17T06:21:41.463Z,100.00
2022-08-17T06:24:28.601Z,100.00
2022-08-17T06:27:12.993Z,100.00
2022-08-17T06:29:50.465Z,100.00
2022-08-17T06:32:17.216Z,100.00
2022-08-17T06:34:46.028Z,100.00
2022-08-17T06:37:52.473Z,100.00
2022-08-17T06:40:56.732Z,100.00
2022-08-17T06:43:33.983Z,100.00
2022-08-17T06:46:11.436Z,100.00
2022-08-17T06:48:43.180Z,100.00
2022-08-17T06:51:22.120Z,100.00
2022-08-17T06:53:55.586Z,100.00
2022-08-17T06:56:53.296Z,100.00
2022-08-17T06:59:26.825Z,100.00
2022-08-17T07:02:51.512Z,100.00
2022-08-17T07:05:24.104Z,100.00
2022-08-17T07:08:11.736Z,99.52
2022-08-17T07:10:47.152Z,99.77
2022-08-17T07:13:51.117Z,98.31
2022-08-17T07:16:30.931Z,97.89
2022-08-17T07:18:59.333Z,99.45
2022-08-17T07:21:50.571Z,98.69
2022-08-17T07:24:33.013Z,98.74
2022-08-17T07:27:12.878Z,98.65
2022-08-17T07:29:44.185Z,98.84
2022-08-17T07:32:14.205Z,99.17
2022-08-17T07:35:00.418Z,99.14
2022-08-17T07:37:26.974Z,99.60
2022-08-17T07:39:59.490Z,99.44
2022-08-17T07:42:45.106Z,99.14
2022-08-17T07:45:34.686Z,99.18
2022-08-17T07:48:19.285Z,99.03
2022-08-17T07:50:49.625Z,99.04
2022-08-17T07:53:23.620Z,98.85
2022-08-17T07:55:51.606Z,99.67
2022-08-17T07:58:21.699Z,99.21
2022-08-17T08:01:05.746Z,99.39
2022-08-17T08:03:34.058Z,99.91
2022-08-17T08:06:02.941Z,100.00
2022-08-17T08:08:42.758Z,100.00
2022-08-17T08:11:15.450Z,100.00
2022-08-17T08:13:45.449Z,99.80
2022-08-17T08:16:15.171Z,99.35
2022-08-17T08:18:56.052Z,99.58
2022-08-17T08:21:44.826Z,98.91
2022-08-17T08:24:45.014Z,100.00
2022-08-17T08:27:36.628Z,100.00
2022-08-17T08:30:14.391Z,100.00
2022-08-17T08:33:04.134Z,100.00
2022-08-17T08:35:32.645Z,100.00
2022-08-17T08:38:19.986Z,100.00
2022-08-17T08:41:21.139Z,100.00
2022-08-17T08:44:09.109Z,100.00
2022-08-17T08:46:50.748Z,100.00
2022-08-17T08:50:07.195Z,100.00
2022-08-17T08:52:56.912Z,100.00
2022-08-17T08:55:41.808Z,100.00
2022-08-17T08:58:31.884Z,100.00
2022-08-17T09:01:08.868Z,100.00
2022-08-17T09:04:26.204Z,100.00
2022-08-17T09:07:03.172Z,100.00
2022-08-17T09:10:02.440Z,100.00
2022-08-17T09:13:11.926Z,100.00
2022-08-17T09:15:46.726Z,100.00
2022-08-17T09:19:01.184Z,100.00
2022-08-17T09:21:23.776Z,100.00
2022-08-17T09:24:08.049Z,100.00
2022-08-17T09:26:39.334Z,100.00
2022-08-17T09:29:10.689Z,99.26
2022-08-17T09:31:58.791Z,94.85
2022-08-17T09:34:39.839Z,88.35
2022-08-17T09:37:20.532Z,89.39
2022-08-17T09:40:21.121Z,82.62
2022-08-17T09:42:53.377Z,86.68
2022-08-17T09:45:42.738Z,85.47
2022-08-17T09:48:27.533Z,81.53
2022-08-17T09:51:06.575Z,81.47
2022-08-17T09:53:36.874Z,80.31
2022-08-17T09:56:29.988Z,76.88
2022-08-17T09:59:13.846Z,76.49
2022-08-17T10:01:51.577Z,77.46
2022-08-17T10:04:29.435Z,75.92
2022-08-17T10:07:14.702Z,75.51
2022-08-17T10:10:25.115Z,75.16
2022-08-17T10:13:10.233Z,76.98
2022-08-17T10:15:58.058Z,74.78
2022-08-17T10:18:42.230Z,75.59
2022-08-17T10:21:31.341Z,73.05
2022-08-17T10:24:22.318Z,70.52
2022-08-17T10:26:56.864Z,70.94
2022-08-17T10:29:48.643Z,68.84
2022-08-17T10:32:33.494Z,65.34
2022-08-17T10:35:14.650Z,64.61
2022-08-17T10:38:09.239Z,63.11
2022-08-17T10:40:58.343Z,60.44
2022-08-17T10:43:34.105Z,61.97
2022-08-17T10:46:10.294Z,62.88
2022-08-17T10:49:27.784Z,61.23
2022-08-17T10:51:57.251Z,63.09
2022-08-17T10:54:46.272Z,59.90
2022-08-17T10:57:27.994Z,61.64
2022-08-17T10:59:56.323Z,63.14
2022-08-17T11:02:49.460Z,64.08
2022-08-17T11:05:32.225Z,63.64
2022-08-17T11:08:17.435Z,63.61
2022-08-17T11:10:54.496Z,63.94
2022-08-17T11:13:26.636Z,62.70
2022-08-17T11:16:30.019Z,62.56
2022-08-17T11:19:19.635Z,61.83
2022-08-17T11:22:20.781Z,60.66
2022-08-17T11:24:51.310Z,61.50
2022-08-17T11:27:31.144Z,58.88
2022-08-17T11:30:02.753Z,57.80
2022-08-17T11:32:47.087Z,54.33
2022-08-17T11:35:20.029Z,53.79
2022-08-17T11:38:15.938Z,52.24
2022-08-17T11:41:27.395Z,49.14
2022-08-17T11:44:18.677Z,48.11
2022-08-17T11:47:09.942Z,48.75
2022-08-17T11:50:15.499Z,47.08
2022-08-17T11:52:49.977Z,47.20
2022-08-17T11:55:40.551Z,46.55
2022-08-17T11:58:29.809Z,45.16
2022-08-17T12:00:57.406Z,46.32
2022-08-17T12:03:39.001Z,44.92
2022-08-17T12:06:11.264Z,45.37
2022-08-17T12:08:43.416Z,43.33
2022-08-17T12:11:55.663Z,42.71
2022-08-17T12:14:10.054Z,43.93
2022-08-17T12:16:39.281Z,43.46
2022-08-17T12:19:08.151Z,43.13
2022-08-17T12:21:49.720Z,42.15
2022-08-17T12:24:23.353Z,43.49
2022-08-17T12:27:02.376Z,43.64
2022-08-17T12:29:39.075Z,43.60
2022-08-17T12:32:07.087Z,43.75
2022-08-17T12:34:38.250Z,43.47
2022-08-17T12:37:08.061Z,44.42
2022-08-17T12:39:34.829Z,44.16
2022-08-17T12:42:02.799Z,43.68
2022-08-17T12:44:35.729Z,43.56
2022-08-17T12:47:19.404Z,43.16
2022-08-17T12:49:51.392Z,43.01
2022-08-17T12:52:23.586Z,43.16
2022-08-17T12:55:00.340Z,43.28
2022-08-17T12:57:34.832Z,44.03
2022-08-17T13:00:10.786Z,44.04
2022-08-17T13:02:52.427Z,44.69
2022-08-17T13:05:28.688Z,45.41
2022-08-17T13:07:58.790Z,46.23
2022-08-17T13:10:32.799Z,46.63
2022-08-17T13:13:05.311Z,46.93
2022-08-17T13:15:44.678Z,46.31
2022-08-17T13:18:38.792Z,45.34
2022-08-17T13:21:30.575Z,43.94
2022-08-17T13:24:19.828Z,42.33
2022-08-17T13:27:07.817Z,41.26
2022-08-17T13:29:38.911Z,40.91
2022-08-17T13:32:13.223Z,42.10
2022-08-17T13:34:56.204Z,41.97
2022-08-17T13:37:34.652Z,41.62
2022-08-17T13:40:10.136Z,41.14
2022-08-17T13:42:51.952Z,41.28
2022-08-17T13:45:36.696Z,41.18
2022-08-17T13:48:32.494Z,41.18
2022-08-17T13:50:59.489Z,42.56
2022-08-17T13:53:32.955Z,42.95
2022-08-17T13:56:07.298Z,44.06
2022-08-17T13:58:57.261Z,44.88
2022-08-17T14:01:37.569Z,45.39
2022-08-17T14:04:07.804Z,45.88
2022-08-17T14:06:52.794Z,46.81
2022-08-17T14:09:26.645Z,46.84
2022-08-17T14:11:54.759Z,47.05
2022-08-17T14:14:23.189Z,47.26
2022-08-17T14:16:50.970Z,47.72
2022-08-17T14:19:18.058Z,47.61
2022-08-17T14:21:46.293Z,47.25
2022-08-17T14:24:35.059Z,46.76
2022-08-17T14:27:03.570Z,45.98
2022-08-17T14:29:31.450Z,45.79
2022-08-17T14:32:02.454Z,45.25
2022-08-17T14:34:28.937Z,44.53
2022-08-17T14:36:56.902Z,44.21
2022-08-17T14:39:23.392Z,43.84
2022-08-17T14:41:50.558Z,43.28
2022-08-17T14:44:17.078Z,43.29
2022-08-17T14:46:44.760Z,42.87
2022-08-17T14:49:12.684Z,42.08
2022-08-17T14:51:44.094Z,41.92
2022-08-17T14:54:11.581Z,41.60
2022-08-17T14:57:09.359Z,41.11
2022-08-17T14:59:44.554Z,40.92
2022-08-17T15:02:11.051Z,40.58
2022-08-17T15:04:43.421Z,40.37
2022-08-17T15:07:11.916Z,40.31
2022-08-17T15:09:38.972Z,39.89
2022-08-17T15:12:06.585Z,39.99
2022-08-17T15:14:35.318Z,40.10
2022-08-17T15:17:03.124Z,39.95
2022-08-17T15:19:29.595Z,39.65
2022-08-17T15:21:56.004Z,39.67
2022-08-17T15:24:22.460Z,40.04
2022-08-17T15:26:48.882Z,39.93
2022-08-17T15:29:15.379Z,39.79
2022-08-17T15:31:41.893Z,39.63
2022-08-17T15:34:08.762Z,39.84
2022-08-17T15:36:35.810Z,39.55
2022-08-17T15:39:03.040Z,39.60
2022-08-17T15:41:29.603Z,39.60
2022-08-17T15:43:56.445Z,39.10
2022-08-17T15:46:25.570Z,39.09
2022-08-17T15:48:55.558Z,38.78
2022-08-17T15:51:27.331Z,38.72
2022-08-17T15:53:56.871Z,39.38
2022-08-17T15:56:25.209Z,39.09
2022-08-17T15:58:52.567Z,38.62
2022-08-17T16:01:41.882Z,38.63
2022-08-17T16:04:21.281Z,38.57
2022-08-17T16:06:54.292Z,38.08
2022-08-17T16:09:20.730Z,38.26
2022-08-17T16:11:53.768Z,37.70
2022-08-17T16:14:22.595Z,37.36
2022-08-17T16:16:50.486Z,37.42
2022-08-17T16:19:17.013Z,36.73
2022-08-17T16:21:43.537Z,36.79
2022-08-17T16:24:13.498Z,36.94
2022-08-17T16:26:42.009Z,36.73
2022-08-17T16:29:08.866Z,37.19
2022-08-17T16:31:38.635Z,37.23
2022-08-17T16:34:17.438Z,37.57
2022-08-17T16:36:51.709Z,37.46
2022-08-17T16:39:22.456Z,38.16
2022-08-17T16:41:49.530Z,37.98
2022-08-17T16:44:18.948Z,38.49
2022-08-17T16:46:46.837Z,39.25
2022-08-17T16:49:32.446Z,39.97
2022-08-17T16:52:02.967Z,40.26
2022-08-17T16:54:29.458Z,40.97
2022-08-17T16:56:55.881Z,41.74
2022-08-17T16:59:31.362Z,41.78
2022-08-17T17:02:12.789Z,42.38
2022-08-17T17:05:01.082Z,42.92
2022-08-17T17:07:35.678Z,42.89
2022-08-17T17:10:09.721Z,43.21
2022-08-17T17:13:01.429Z,42.98
2022-08-17T17:15:31.324Z,43.10
2022-08-17T17:18:07.266Z,43.60
2022-08-17T17:20:47.540Z,44.04
2022-08-17T17:23:56.376Z,44.58
2022-08-17T17:26:29.009Z,44.66
2022-08-17T17:29:14.073Z,45.24
2022-08-17T17:31:51.186Z,45.01
2022-08-17T17:34:18.397Z,45.26
2022-08-17T17:36:56.415Z,45.38
2022-08-17T17:39:41.230Z,45.68
2022-08-17T17:42:20.096Z,45.63
2022-08-17T17:45:02.641Z,45.87
2022-08-17T17:47:31.050Z,45.73
2022-08-17T17:50:01.331Z,46.15
2022-08-17T17:52:49.658Z,46.12
2022-08-17T17:55:44.067Z,46.40
2022-08-17T17:58:36.150Z,46.26
2022-08-17T18:01:39.073Z,46.63
2022-08-17T18:04:22.314Z,46.93
2022-08-17T18:07:26.572Z,47.45
2022-08-17T18:10:01.030Z,47.68
2022-08-17T18:12:43.737Z,48.26
2022-08-17T18:15:29.547Z,48.56
2022-08-17T18:18:02.329Z,49.18
2022-08-17T18:20:35.910Z,49.14
2022-08-17T18:23:13.085Z,49.71
2022-08-17T18:25:46.249Z,50.86
2022-08-17T18:28:31.605Z,52.04
2022-08-17T18:31:30.126Z,52.47
2022-08-17T18:34:45.747Z,54.07
2022-08-17T18:37:11.157Z,53.77
2022-08-17T18:39:42.502Z,54.53
2022-08-17T18:42:27.358Z,56.12
2022-08-17T18:44:55.259Z,55.74
2022-08-17T18:47:27.626Z,56.70
2022-08-17T18:49:57.955Z,56.89
2022-08-17T18:52:30.574Z,58.07
2022-08-17T18:55:11.770Z,59.62
2022-08-17T18:57:45.609Z,61.01
2022-08-17T19:00:21.013Z,61.45
2022-08-17T19:02:54.713Z,63.16
2022-08-17T19:05:41.747Z,64.39
2022-08-17T19:08:20.187Z,64.80
2022-08-17T19:10:50.274Z,64.63
2022-08-17T19:13:32.200Z,66.68
2022-08-17T19:16:13.778Z,68.00
2022-08-17T19:19:30.445Z,69.69
2022-08-17T19:22:08.161Z,69.76
2022-08-17T19:24:36.246Z,70.49
2022-08-17T19:27:54.234Z,75.11
2022-08-17T19:30:24.508Z,72.42
2022-08-17T19:32:51.391Z,73.99
2022-08-17T19:35:20.182Z,74.89
2022-08-17T19:37:58.898Z,75.69
2022-08-17T19:40:52.937Z,76.56
2022-08-17T19:43:32.564Z,79.74
2022-08-17T19:46:15.725Z,79.43
2022-08-17T19:48:54.033Z,80.68
2022-08-17T19:51:48.780Z,82.49
2022-08-17T19:54:28.747Z,83.30
2022-08-17T19:57:09.050Z,83.74
2022-08-17T20:00:01.788Z,85.47
2022-08-17T20:02:49.703Z,85.64
2022-08-17T20:05:24.104Z,85.38
2022-08-17T20:08:11.379Z,87.40
2022-08-17T20:11:09.521Z,87.91
2022-08-17T20:13:47.250Z,89.18
2022-08-17T20:16:13.719Z,87.55
2022-08-17T20:18:48.182Z,89.12
2022-08-17T20:21:20.359Z,89.08
2022-08-17T20:24:04.344Z,92.68
2022-08-17T20:26:58.703Z,90.70
2022-08-17T20:29:39.463Z,91.39
2022-08-17T20:32:16.312Z,92.45
2022-08-17T20:34:46.395Z,92.75
2022-08-17T20:37:12.738Z,92.87
2022-08-17T20:39:50.495Z,93.58
2022-08-17T20:42:20.030Z,93.90
2022-08-17T20:44:50.483Z,94.67
2022-08-17T20:47:27.362Z,96.19
2022-08-17T20:50:02.268Z,96.05
2022-08-17T20:52:45.666Z,97.30
2022-08-17T20:55:51.420Z,99.54
2022-08-17T20:58:30.899Z,97.41
2022-08-17T21:00:57.803Z,97.99
2022-08-17T21:03:24.290Z,98.81
2022-08-17T21:06:04.744Z,99.50
2022-08-17T21:08:57.558Z,100.00
2022-08-17T21:11:56.640Z,100.00
2022-08-17T21:14:57.945Z,100.00
2022-08-17T21:18:06.612Z,100.00
2022-08-17T21:21:01.648Z,100.00
2022-08-17T21:23:42.849Z,100.00
2022-08-17T21:26:17.501Z,100.00
2022-08-17T21:29:31.991Z,100.00
2022-08-17T21:31:59.447Z,100.00
2022-08-17T21:34:27.925Z,100.00
2022-08-17T21:36:56.729Z,100.00
2022-08-17T21:39:33.393Z,100.00
2022-08-17T21:42:00.420Z,100.00
2022-08-17T21:44:36.965Z,100.00
2022-08-17T21:47:29.307Z,100.00
2022-08-17T21:50:13.351Z,100.00
2022-08-17T21:52:40.599Z,100.00
2022-08-17T21:55:07.893Z,100.00
2022-08-17T21:57:40.677Z,100.00
2022-08-17T22:00:29.113Z,100.00
2022-08-17T22:02:58.925Z,100.00
2022-08-17T22:05:29.713Z,100.00
2022-08-17T22:08:03.375Z,100.00
2022-08-17T22:10:41.881Z,100.00
2022-08-17T22:13:19.733Z,100.00
2022-08-17T22:15:49.790Z,100.00
2022-08-17T22:18:25.475Z,100.00
2022-08-17T22:20:55.465Z,100.00
2022-08-17T22:24:02.038Z,100.00
2022-08-17T22:27:00.084Z,100.00
2022-08-17T22:29:42.623Z,100.00
2022-08-17T22:32:09.488Z,100.00
2022-08-17T22:34:36.041Z,100.00
2022-08-17T22:37:27.966Z,100.00
2022-08-17T22:39:58.858Z,100.00
2022-08-17T22:42:25.689Z,100.00
2022-08-17T22:44:54.367Z,100.00
2022-08-17T22:47:30.771Z,100.00
2022-08-17T22:50:01.646Z,100.00
2022-08-17T22:52:57.276Z,100.00
2022-08-17T22:55:43.837Z,100.00
2022-08-17T22:58:31.609Z,100.00
2022-08-17T23:01:26.330Z,100.00
2022-08-17T23:03:58.091Z,100.00
2022-08-17T23:06:24.659Z,100.00
2022-08-17T23:08:56.305Z,100.00
2022-08-17T23:11:36.533Z,100.00
2022-08-17T23:14:15.773Z,100.00
2022-08-17T23:16:42.872Z,100.00
2022-08-17T23:19:15.425Z,100.00
2022-08-17T23:21:44.786Z,100.00
2022-08-17T23:24:17.551Z,100.00
2022-08-17T23:26:43.980Z,100.00
2022-08-17T23:29:10.434Z,100.00
2022-08-17T23:31:38.747Z,100.00
2022-08-17T23:34:09.854Z,100.00
2022-08-17T23:36:36.571Z,100.00
2022-08-17T23:39:04.566Z,100.00
2022-08-17T23:41:34.979Z,100.00
2022-08-17T23:44:03.134Z,100.00
2022-08-17T23:46:29.770Z,100.00
2022-08-17T23:48:56.169Z,100.00
2022-08-17T23:51:34.533Z,100.00
2022-08-17T23:54:13.423Z,100.00
2022-08-17T23:56:46.511Z,100.00
2022-08-17T23:59:18.802Z,100.00
